Time;durP1;ratioP1;P1;durP2;ratioP2;P2;SDS_P1;SDS_P2;PMS_P1;PMS_P2;Temp;Humidity;BMP_temperature;BMP_pressure;BME280_temperature;BME280_humidity;BME280_pressure;Samples;Min_cycle;Max_cycle;Signal;HPM_P1;HPM_P2
2021/01/31 00:09:23;;;;;;;9.00;5.00;;;;;;;-4.20;77.71;97390.12;505991;1150;103487;-38
2021/01/31 00:19:27;;;;;;;19.67;9.47;;;;;;;-4.25;77.88;97400.16;506050;1150;102424;-38
2021/01/31 00:29:32;;;;;;;17.83;8.73;;;;;;;-4.17;77.58;97407.86;504661;1150;102072;-39
2021/01/31 00:39:36;;;;;;;22.25;10.25;;;;;;;-3.99;77.80;97420.55;506083;1149;102385;-39
2021/01/31 00:49:42;;;;;;;18.03;9.63;;;;;;;-4.26;77.77;97419.97;506061;1149;102499;-39
2021/01/31 00:59:47;;;;;;;20.03;7.97;;;;;;;-4.28;77.70;97421.91;506041;1150;102903;-39
2021/01/31 01:09:52;;;;;;;23.47;12.73;;;;;;;-4.26;78.21;97419.97;504562;1150;102451;-39
2021/01/31 01:19:56;;;;;;;36.77;17.63;;;;;;;-4.17;78.10;97418.98;506084;1150;102146;-39
2021/01/31 01:30:02;;;;;;;59.27;25.20;;;;;;;-4.20;77.83;97415.94;504606;1150;102396;-39
2021/01/31 01:40:15;;;;;;;62.67;25.93;;;;;;;-4.10;77.87;97424.28;506112;1149;102044;-39
2021/01/31 01:50:22;;;;;;;35.33;14.73;;;;;;;-4.38;77.70;97421.30;506112;1149;103147;-40
2021/01/31 02:00:52;;;;;;;36.77;14.87;;;;;;;-4.49;77.64;97425.05;504535;1151;102053;-39
2021/01/31 02:10:56;;;;;;;33.37;16.17;;;;;;;-4.31;78.13;97427.41;506108;1149;102267;-39
2021/01/31 02:31:50;;;;;;;21.90;13.05;;;;;;;-4.33;77.99;97424.99;505931;1151;102350;-37
2021/01/31 02:42:07;;;;;;;56.10;25.40;;;;;;;-4.45;77.81;97433.27;504136;1151;103222;-38
2021/01/31 02:52:19;;;;;;;60.43;24.93;;;;;;;-4.46;77.89;97434.23;505910;1151;102813;-38
2021/01/31 03:02:31;;;;;;;23.80;12.33;;;;;;;-4.81;77.21;97437.96;503345;1159;102450;-38
2021/01/31 03:12:40;;;;;;;19.30;10.83;;;;;;;-5.06;77.60;97437.96;505905;1151;102462;-38
2021/01/31 03:22:48;;;;;;;28.40;11.33;;;;;;;-5.15;77.58;97438.94;505618;1152;102422;-38
2021/01/31 03:32:58;;;;;;;22.53;10.33;;;;;;;-5.33;77.48;97444.22;505940;1151;103125;-38
2021/01/31 03:43:03;;;;;;;16.93;10.07;;;;;;;-5.76;76.99;97447.81;505953;1151;101991;-38
2021/01/31 03:53:09;;;;;;;15.50;9.03;;;;;;;-6.20;77.24;97465.98;506006;1151;102179;-37
2021/01/31 04:03:18;;;;;;;13.90;7.80;;;;;;;-6.60;76.72;97470.89;505955;1151;102101;-37
2021/01/31 04:13:23;;;;;;;18.60;9.40;;;;;;;-7.09;76.95;97480.79;505909;1151;102468;-38
2021/01/31 04:23:27;;;;;;;20.07;11.10;;;;;;;-7.71;76.28;97479.02;505404;1152;102921;-39
2021/01/31 04:33:32;;;;;;;27.43;11.50;;;;;;;-8.15;76.77;97497.56;505985;1151;102625;-38
2021/01/31 04:43:36;;;;;;;17.17;10.30;;;;;;;-8.08;77.43;97498.61;505911;1151;101990;-39
2021/01/31 04:53:45;;;;;;;19.53;10.60;;;;;;;-8.39;77.16;97505.76;505268;1151;102035;-39
2021/01/31 05:03:50;;;;;;;14.38;8.85;;;;;;;-8.56;77.05;97503.89;505931;1151;102112;-39
2021/01/31 05:13:59;;;;;;;20.70;10.30;;;;;;;-8.47;76.83;97517.66;505919;1151;103274;-39
2021/01/31 05:24:08;;;;;;;20.53;12.10;;;;;;;-8.68;77.77;97526.31;505259;1151;102722;-39
2021/01/31 05:34:13;;;;;;;18.27;10.13;;;;;;;-8.82;77.51;97551.52;505990;1151;102336;-40
2021/01/31 05:44:36;;;;;;;18.27;9.27;;;;;;;-8.96;77.06;97565.55;505895;1151;102434;-39
2021/01/31 05:54:41;;;;;;;25.77;9.53;;;;;;;-9.18;77.36;97565.80;505996;1151;102055;-38
2021/01/31 06:04:45;;;;;;;72.73;23.80;;;;;;;-8.97;77.25;97581.06;505936;1152;103110;-38
2021/01/31 06:15:00;;;;;;;72.27;28.07;;;;;;;-9.06;77.74;97593.70;505915;1151;102013;-38
2021/01/31 06:25:06;;;;;;;127.50;38.57;;;;;;;-9.17;77.63;97605.82;505031;1152;102102;-38
2021/01/31 06:35:14;;;;;;;130.27;51.80;;;;;;;-9.19;78.12;97612.82;505968;1152;102602;-38
2021/01/31 06:45:28;;;;;;;139.47;55.87;;;;;;;-9.07;77.39;97624.56;505964;1151;102351;-38
2021/01/31 06:55:54;;;;;;;122.77;49.20;;;;;;;-8.90;77.53;97643.61;505941;1151;103093;-38
2021/01/31 07:06:11;;;;;;;86.40;37.30;;;;;;;-8.59;77.93;97645.13;505995;1151;103048;-38
2021/01/31 07:16:25;;;;;;;113.57;45.53;;;;;;;-7.80;78.35;97643.17;505954;1151;102002;-38
2021/01/31 07:26:35;;;;;;;113.90;44.67;;;;;;;-6.24;78.44;97659.39;504572;1151;102441;-38
2021/01/31 07:36:50;;;;;;;115.40;49.47;;;;;;;-4.46;78.50;97659.50;506005;1151;102351;-38
2021/01/31 07:46:58;;;;;;;85.07;37.57;;;;;;;-2.36;78.25;97671.34;505950;1151;103237;-38
2021/01/31 07:57:40;;;;;;;81.83;36.43;;;;;;;-0.20;77.96;97661.64;505951;1151;102661;-39
2021/01/31 08:08:09;;;;;;;88.80;38.67;;;;;;;1.40;76.56;97666.92;503345;1152;102592;-39
2021/01/31 08:18:23;;;;;;;94.77;42.93;;;;;;;2.86;75.85;97654.84;505925;1151;102080;-39
2021/01/31 08:28:29;;;;;;;64.93;30.73;;;;;;;3.56;74.82;97656.62;504165;1152;102021;-40
2021/01/31 08:38:49;;;;;;;65.33;31.33;;;;;;;3.77;73.88;97652.86;505984;1151;103212;-40
2021/01/31 08:48:55;;;;;;;47.40;22.90;;;;;;;3.87;74.29;97650.61;505999;1151;102013;-40
2021/01/31 08:59:00;;;;;;;33.70;15.90;;;;;;;1.92;72.26;97660.28;505973;1151;102438;-39
2021/01/31 09:09:06;;;;;;;40.20;15.13;;;;;;;0.78;72.21;97663.43;505995;1151;102393;-40
2021/01/31 09:19:16;;;;;;;36.80;17.20;;;;;;;0.38;71.95;97677.95;506002;1151;102610;-39
2021/01/31 09:29:25;;;;;;;30.90;13.30;;;;;;;-0.01;70.78;97670.59;503840;1151;103105;-39
2021/01/31 09:39:41;;;;;;;12.88;6.40;;;;;;;-0.05;70.53;97667.56;505972;1151;102422;-39
2021/01/31 09:49:49;;;;;;;16.13;6.03;;;;;;;-0.20;70.26;97669.44;505942;1151;102001;-39
2021/01/31 10:00:04;;;;;;;19.57;7.87;;;;;;;-0.06;70.58;97671.16;505963;1152;102121;-39
2021/01/31 10:10:24;;;;;;;10.70;5.90;;;;;;;-0.22;69.04;97674.02;505996;1152;101975;-39
2021/01/31 10:20:34;;;;;;;11.45;5.40;;;;;;;-0.46;70.41;97674.36;505932;1152;103154;-39
2021/01/31 10:30:41;;;;;;;25.03;10.43;;;;;;;-0.55;70.16;97676.23;503575;1152;102438;-39
2021/01/31 10:40:45;;;;;;;46.80;17.10;;;;;;;-0.20;69.46;97666.03;505433;1151;102483;-39
2021/01/31 10:50:49;;;;;;;17.57;7.83;;;;;;;-0.36;69.29;97673.06;505917;1151;102000;-39
2021/01/31 11:00:53;;;;;;;15.87;6.27;;;;;;;-0.40;68.76;97674.42;505989;1151;102403;-39
2021/01/31 11:10:58;;;;;;;17.73;9.00;;;;;;;-0.18;68.82;97666.66;505922;1151;103125;-40
2021/01/31 11:21:03;;;;;;;15.57;8.40;;;;;;;0.29;69.08;97669.48;505964;1152;102425;-39
2021/01/31 11:31:08;;;;;;;20.17;10.50;;;;;;;0.16;69.54;97668.55;503446;1151;102556;-39
2021/01/31 11:41:12;;;;;;;20.30;10.95;;;;;;;0.06;68.44;97652.48;505934;1152;102085;-39
2021/01/31 11:51:17;;;;;;;20.87;10.37;;;;;;;0.11;69.14;97648.33;505937;1152;102096;-39
2021/01/31 12:01:22;;;;;;;14.63;8.23;;;;;;;0.21;68.61;97642.80;505891;1152;103104;-39
2021/01/31 12:11:27;;;;;;;10.37;6.00;;;;;;;0.16;69.32;97626.97;505994;1152;102459;-39
2021/01/31 12:21:32;;;;;;;12.87;7.00;;;;;;;-0.09;68.75;97632.55;505945;1151;102126;-40
2021/01/31 12:31:38;;;;;;;16.53;5.97;;;;;;;-0.29;68.96;97618.57;505975;1151;102371;-39
2021/01/31 12:41:41;;;;;;;25.60;11.93;;;;;;;-0.62;68.77;97621.64;505975;1152;102569;-39
2021/01/31 12:51:46;;;;;;;29.07;12.83;;;;;;;-1.12;68.06;97609.48;505947;1152;103155;-39
2021/01/31 13:01:51;;;;;;;21.60;9.67;;;;;;;-1.19;67.96;97610.36;505977;1152;102440;-40
2021/01/31 13:11:55;;;;;;;25.47;10.20;;;;;;;-1.41;68.25;97618.08;505920;1152;101978;-39
2021/01/31 13:32:19;;;;;;;24.98;11.43;;;;;;;-1.57;67.55;97618.23;506035;1151;102335;-39
2021/01/31 13:42:24;;;;;;;20.50;10.07;;;;;;;-1.62;68.44;97615.37;505947;1151;103145;-39
2021/01/31 13:52:29;;;;;;;24.87;11.50;;;;;;;-1.58;68.62;97612.25;505946;1151;102084;-39
2021/01/31 14:02:34;;;;;;;29.77;14.00;;;;;;;-1.91;68.48;97627.27;505997;1151;102385;-39
2021/01/31 14:13:02;;;;;;;32.23;11.63;;;;;;;-2.01;68.84;97624.14;503359;1154;102116;-39
2021/01/31 14:23:07;;;;;;;22.87;11.57;;;;;;;-1.94;68.69;97621.64;505386;1151;102320;-40
2021/01/31 14:33:12;;;;;;;35.00;16.07;;;;;;;-2.24;68.40;97631.11;505962;1151;104357;-39
2021/01/31 14:43:16;;;;;;;32.43;13.70;;;;;;;-2.44;68.78;97611.83;505977;1151;102018;-39
2021/01/31 14:53:41;;;;;;;29.67;13.67;;;;;;;-2.57;69.65;97613.22;505986;1151;102312;-39
2021/01/31 15:04:06;;;;;;;43.70;19.00;;;;;;;-3.06;69.42;97617.05;503313;1154;102205;-40
2021/01/31 15:14:25;;;;;;;44.10;20.27;;;;;;;-3.32;69.58;97607.74;503289;1159;102058;-40
2021/01/31 15:24:29;;;;;;;67.37;28.07;;;;;;;-3.51;70.03;97602.98;505136;1151;103167;-40
2021/01/31 15:34:34;;;;;;;67.13;28.80;;;;;;;-3.83;69.58;97607.22;505960;1151;102421;-39
2021/01/31 15:44:39;;;;;;;60.33;25.70;;;;;;;-4.08;70.14;97600.47;505985;1151;102327;-39
2021/01/31 15:54:43;;;;;;;53.10;23.27;;;;;;;-4.43;70.13;97599.84;505967;1151;102118;-39
2021/01/31 16:04:48;;;;;;;49.93;24.93;;;;;;;-4.90;70.13;97594.44;505933;1151;102388;-40
2021/01/31 16:14:53;;;;;;;52.43;23.43;;;;;;;-5.57;69.85;97602.08;505984;1152;102985;-39
2021/01/31 16:24:58;;;;;;;51.87;26.80;;;;;;;-5.97;70.34;97599.28;504953;1151;102355;-39
2021/01/31 16:35:03;;;;;;;75.10;30.50;;;;;;;-6.47;70.66;97602.45;503672;1151;102390;-39
2021/01/31 16:45:10;;;;;;;73.23;33.30;;;;;;;-6.72;70.35;97608.32;505942;1151;102599;-39
2021/01/31 16:55:17;;;;;;;90.30;37.47;;;;;;;-7.12;70.74;97597.47;505946;1151;102454;-39
2021/01/31 17:05:25;;;;;;;85.60;39.00;;;;;;;-7.48;70.51;97593.20;505931;1151;103121;-39
2021/01/31 17:15:30;;;;;;;104.00;41.40;;;;;;;-7.72;71.12;97580.88;505913;1151;102440;-39
2021/01/31 17:25:36;;;;;;;117.37;49.77;;;;;;;-7.91;71.22;97571.47;504890;1151;102358;-39
2021/01/31 17:35:40;;;;;;;108.07;53.10;;;;;;;-7.95;71.12;97575.27;505948;1151;102520;-39
2021/01/31 17:45:45;;;;;;;126.83;56.80;;;;;;;-8.14;71.30;97583.81;505981;1151;102364;-39
2021/01/31 17:55:50;;;;;;;113.57;51.83;;;;;;;-8.38;71.70;97579.16;505908;1151;103103;-38
2021/01/31 18:05:54;;;;;;;160.77;65.57;;;;;;;-8.60;71.56;97576.87;506001;1151;102419;-39
2021/01/31 18:15:59;;;;;;;178.53;73.77;;;;;;;-8.73;71.40;97568.67;506007;1151;102189;-39
2021/01/31 18:26:04;;;;;;;210.33;84.93;;;;;;;-8.82;71.67;97562.58;504748;1152;102321;-39
2021/01/31 18:36:10;;;;;;;253.77;100.50;;;;;;;-8.82;72.06;97559.20;505991;1151;102795;-39
2021/01/31 18:46:16;;;;;;;333.87;135.87;;;;;;;-8.66;72.60;97549.23;505934;1151;102997;-39
2021/01/31 18:56:20;;;;;;;448.70;186.13;;;;;;;-8.73;72.38;97545.61;505975;1151;102198;-39
2021/01/31 19:16:44;;;;;;;553.02;232.75;;;;;;;-8.84;72.77;97556.78;505921;1151;102067;-39
2021/01/31 19:26:48;;;;;;;592.10;253.00;;;;;;;-9.07;72.11;97543.42;504484;1152;102537;-39
2021/01/31 19:36:52;;;;;;;643.23;269.00;;;;;;;-9.24;72.98;97535.58;505974;1152;103157;-39
2021/01/31 19:46:57;;;;;;;639.90;272.80;;;;;;;-9.32;73.11;97531.94;505942;1152;102432;-39
2021/01/31 19:57:02;;;;;;;637.50;266.10;;;;;;;-9.52;72.68;97527.72;505997;1151;102468;-39
2021/01/31 20:07:06;;;;;;;591.20;247.73;;;;;;;-9.67;72.82;97529.85;505861;1152;102444;-39
2021/01/31 20:17:39;;;;;;;604.50;247.63;;;;;;;-9.58;73.29;97535.12;503321;1154;102427;-39
2021/01/31 20:27:45;;;;;;;402.87;159.00;;;;;;;-9.45;73.40;97528.02;504016;1152;103134;-39
2021/01/31 20:37:50;;;;;;;335.80;125.37;;;;;;;-9.35;73.43;97526.28;505981;1151;102632;-38
2021/01/31 20:47:57;;;;;;;337.13;127.77;;;;;;;-9.31;74.07;97510.52;505952;1151;102091;-39
2021/01/31 20:58:01;;;;;;;335.43;117.47;;;;;;;-9.32;74.14;97506.34;505955;1152;101980;-39
2021/01/31 21:08:07;;;;;;;303.43;115.23;;;;;;;-9.38;74.28;97490.71;506032;1151;102483;-39
2021/01/31 21:18:13;;;;;;;286.47;102.07;;;;;;;-9.35;74.37;97483.57;505914;1151;103024;-38
2021/01/31 21:28:18;;;;;;;271.70;100.30;;;;;;;-9.33;74.39;97496.23;504150;1151;102360;-38
2021/01/31 21:38:23;;;;;;;286.07;105.47;;;;;;;-9.31;74.02;97484.92;505970;1151;102242;-39
2021/01/31 21:48:28;;;;;;;314.47;118.47;;;;;;;-9.33;74.29;97488.56;505996;1151;102047;-39
2021/01/31 21:58:32;;;;;;;295.00;116.37;;;;;;;-9.40;74.61;97478.05;505989;1151;102162;-38
2021/01/31 22:08:37;;;;;;;284.67;104.40;;;;;;;-9.48;75.21;97479.64;505955;1151;103102;-39
2021/01/31 22:18:44;;;;;;;318.60;111.03;;;;;;;-9.57;74.37;97476.13;504752;1151;102123;-39
2021/01/31 22:28:49;;;;;;;302.80;103.77;;;;;;;-9.68;74.55;97473.70;504038;1151;102407;-39
2021/01/31 22:38:53;;;;;;;322.77;112.77;;;;;;;-9.82;74.47;97461.27;505916;1151;102544;-39
2021/01/31 22:48:58;;;;;;;327.67;116.93;;;;;;;-9.93;74.59;97473.23;506003;1151;101999;-39
2021/01/31 22:59:02;;;;;;;322.17;114.40;;;;;;;-9.97;75.41;97479.52;505910;1151;103178;-39
2021/01/31 23:09:07;;;;;;;303.97;103.23;;;;;;;-10.03;74.94;97481.80;505982;1151;102402;-39
2021/01/31 23:19:12;;;;;;;285.40;93.60;;;;;;;-10.14;75.30;97472.48;505983;1151;102370;-38
2021/01/31 23:29:17;;;;;;;282.90;95.47;;;;;;;-10.10;75.02;97467.92;503910;1151;102374;-39
2021/01/31 23:39:22;;;;;;;244.73;86.57;;;;;;;-9.83;76.14;97451.98;506008;1151;102086;-39
2021/01/31 23:49:25;;;;;;;233.70;84.37;;;;;;;-9.75;75.43;97449.56;505935;1151;103119;-39
2021/01/31 23:59:30;;;;;;;228.97;85.03;;;;;;;-9.77;75.04;97441.22;505914;1151;102343;-39
